createdAt,value
2023-05-24T00:00:00.223Z,17691.06
2023-05-24T00:04:01.961Z,17635.84
2023-05-24T00:08:05.123Z,17699.25
2023-05-24T00:12:06.920Z,17695.16
2023-05-24T00:16:08.432Z,17684.94
2023-05-24T00:20:11.261Z,17674.72
2023-05-24T00:24:14.327Z,17684.94
2023-05-24T00:28:15.846Z,17646.06
2023-05-24T00:32:17.300Z,17680.84
2023-05-24T00:36:18.902Z,17666.53
2023-05-24T00:40:21.731Z,17641.97
2023-05-24T00:44:23.302Z,17650.16
2023-05-24T00:48:25.124Z,17629.72
2023-05-24T00:52:26.736Z,17670.63
2023-05-24T00:56:30.043Z,17617.44
2023-05-24T01:00:32.475Z,17617.44
2023-05-24T01:04:34.028Z,17617.44
2023-05-24T01:08:45.622Z,17629.72
2023-05-24T01:12:59.219Z,17650.16
2023-05-24T01:17:06.360Z,17586.75
2023-05-24T01:21:19.814Z,17572.44
2023-05-24T01:25:33.957Z,17615.38
2023-05-24T01:29:38.073Z,17611.28
2023-05-24T01:33:42.748Z,17582.66
2023-05-24T01:37:44.207Z,17580.63
2023-05-24T01:41:54.562Z,17580.63
2023-05-24T01:46:03.038Z,17588.78
2023-05-24T01:50:11.404Z,17590.84
2023-05-24T01:54:14.512Z,17574.47
2023-05-24T01:58:17.773Z,17580.63
2023-05-24T02:02:20.711Z,17576.53
2023-05-24T02:06:22.234Z,17560.16
2023-05-24T02:10:23.714Z,17558.13
2023-05-24T02:14:25.210Z,17515.16
2023-05-24T02:18:28.060Z,17537.66
2023-05-24T02:22:29.544Z,17560.16
2023-05-24T02:26:30.999Z,17537.66
2023-05-24T02:30:32.436Z,17527.44
2023-05-24T02:34:35.256Z,17570.38
2023-05-24T02:38:36.723Z,17519.25
2023-05-24T02:42:38.241Z,17470.16
2023-05-24T02:46:39.906Z,17488.56
2023-05-24T02:50:42.964Z,17451.75
2023-05-24T02:54:44.653Z,17486.53
2023-05-24T02:58:46.075Z,17488.56
2023-05-24T03:02:47.574Z,17547.88
2023-05-24T03:06:50.416Z,17488.56
2023-05-24T03:10:51.845Z,17470.16
2023-05-24T03:14:53.294Z,17474.25
2023-05-24T03:18:54.999Z,17488.56
2023-05-24T03:22:57.775Z,17478.34
2023-05-24T03:26:59.210Z,17461.97
2023-05-24T03:31:00.716Z,17429.25
2023-05-24T03:35:02.165Z,17455.84
2023-05-24T03:39:05.018Z,17445.59
2023-05-24T03:43:06.577Z,17466.06
2023-05-24T03:47:08.010Z,17451.75
2023-05-24T03:51:09.456Z,17447.66
2023-05-24T03:55:12.212Z,17441.53
2023-05-24T03:59:13.678Z,17488.56
2023-05-24T04:03:15.303Z,17494.69
2023-05-24T04:07:16.822Z,17484.47
2023-05-24T04:11:19.672Z,17447.66
2023-05-24T04:15:21.166Z,17470.16
2023-05-24T04:19:22.733Z,17468.09
2023-05-24T04:23:24.164Z,17470.16
2023-05-24T04:27:26.968Z,17511.06
2023-05-24T04:31:28.486Z,17506.97
2023-05-24T04:35:29.961Z,17506.97
2023-05-24T04:39:31.416Z,17541.75
2023-05-24T04:43:34.458Z,17535.59
2023-05-24T04:47:35.928Z,17545.84
2023-05-24T04:51:37.405Z,17551.97
2023-05-24T04:55:38.841Z,17592.88
2023-05-24T04:59:41.571Z,17594.94
2023-05-24T05:03:43.360Z,17625.63
2023-05-24T05:07:44.885Z,17674.72
2023-05-24T05:11:46.824Z,17777.00
2023-05-24T05:15:49.625Z,17867.00
2023-05-24T05:19:51.163Z,17983.59
2023-05-24T05:23:52.597Z,18028.59
2023-05-24T05:27:54.087Z,18132.94
2023-05-24T05:31:56.887Z,18247.50
2023-05-24T05:35:58.430Z,18290.47
2023-05-24T05:39:59.858Z,18374.38
2023-05-24T05:44:01.291Z,18429.59
2023-05-24T05:48:04.135Z,18517.59
2023-05-24T05:52:05.995Z,18570.78
2023-05-24T05:56:07.441Z,18664.91
2023-05-24T06:00:09.945Z,18736.50
2023-05-24T06:04:12.948Z,18730.38
2023-05-24T06:08:14.423Z,18849.06
2023-05-24T06:12:15.845Z,18844.97
2023-05-24T06:16:17.364Z,18873.59
2023-05-24T06:20:20.249Z,18957.50
2023-05-24T06:24:21.789Z,19047.53
2023-05-24T06:28:23.456Z,19133.47
2023-05-24T06:32:24.946Z,19213.28
2023-05-24T06:36:27.725Z,19307.44
2023-05-24T06:40:29.255Z,19329.94
2023-05-24T06:44:30.763Z,19364.72
2023-05-24T06:48:32.236Z,19417.94
2023-05-24T06:52:35.108Z,19516.16
2023-05-24T06:56:36.488Z,19205.09
2023-05-24T07:00:37.886Z,19266.50
2023-05-24T07:04:39.577Z,19561.19
2023-05-24T07:08:42.490Z,18943.19
2023-05-24T07:12:43.927Z,18806.09
2023-05-24T07:16:45.373Z,18859.28
2023-05-24T07:20:47.264Z,19503.88
2023-05-24T07:24:50.917Z,19753.56
2023-05-24T07:28:52.375Z,20003.28
2023-05-24T07:32:53.950Z,20101.53
2023-05-24T07:36:55.612Z,20236.63
2023-05-24T07:41:00.589Z,20363.53
2023-05-24T07:45:02.573Z,20279.59
2023-05-24T07:49:04.094Z,19608.25
2023-05-24T07:53:05.767Z,20246.84
2023-05-24T07:57:09.501Z,20312.38
2023-05-24T08:01:11.101Z,19679.91
2023-05-24T08:05:13.184Z,20373.78
2023-05-24T08:09:14.630Z,19532.53
2023-05-24T08:13:17.449Z,19198.97
2023-05-24T08:17:19.308Z,20074.91
2023-05-24T08:21:21.176Z,19117.13
2023-05-24T08:25:22.852Z,20079.00
2023-05-24T08:29:25.700Z,20298.03
2023-05-24T08:33:27.185Z,19817.03
2023-05-24T08:37:28.927Z,19610.31
2023-05-24T08:41:30.503Z,19524.34
2023-05-24T08:45:36.957Z,19082.31
2023-05-24T08:49:39.581Z,19866.16
2023-05-24T08:53:41.322Z,18857.25
2023-05-24T08:57:45.213Z,18687.41
2023-05-24T09:01:53.210Z,18599.41
2023-05-24T09:05:55.184Z,18513.50
2023-05-24T09:09:58.800Z,18495.06
2023-05-24T09:14:01.217Z,18419.38
2023-05-24T09:18:04.102Z,18529.84
2023-05-24T09:22:06.416Z,18509.41
2023-05-24T09:26:09.014Z,18398.91
2023-05-24T09:30:11.440Z,18429.59
2023-05-24T09:34:16.004Z,18347.75
2023-05-24T09:38:18.478Z,18333.44
2023-05-24T09:42:21.762Z,18280.25
2023-05-24T09:46:23.405Z,18797.91
2023-05-24T09:50:26.235Z,18951.38
2023-05-24T09:54:27.673Z,19000.47
2023-05-24T09:58:29.916Z,19444.53
2023-05-24T10:02:41.539Z,19585.75
2023-05-24T10:06:54.561Z,18867.47
2023-05-24T10:10:55.994Z,18685.34
2023-05-24T10:14:59.009Z,18585.09
2023-05-24T10:19:00.547Z,18480.75
2023-05-24T10:23:07.506Z,18454.16
2023-05-24T10:27:13.941Z,18542.13
2023-05-24T10:31:19.415Z,18507.34
2023-05-24T10:35:21.721Z,18511.44
2023-05-24T10:39:25.422Z,18495.06
2023-05-24T10:43:26.950Z,18448.00
2023-05-24T10:47:28.474Z,18642.38
2023-05-24T10:51:32.661Z,18773.34
2023-05-24T10:55:35.563Z,18785.63
2023-05-24T10:59:38.295Z,18761.06
2023-05-24T11:03:41.033Z,18750.84
2023-05-24T11:07:43.235Z,18734.47
2023-05-24T11:11:47.270Z,18724.22
2023-05-24T11:15:51.779Z,18812.22
2023-05-24T11:19:55.502Z,18820.41
2023-05-24T11:23:57.586Z,18840.88
2023-05-24T11:28:01.114Z,19006.63
2023-05-24T11:32:02.659Z,18916.56
2023-05-24T11:36:04.307Z,18988.19
2023-05-24T11:40:08.283Z,18869.50
2023-05-24T11:44:12.384Z,19198.97
2023-05-24T11:48:15.008Z,19104.84
2023-05-24T11:52:17.055Z,18939.09
2023-05-24T11:56:18.546Z,18941.13
2023-05-24T12:00:25.802Z,18791.75
2023-05-24T12:04:28.331Z,18638.28
2023-05-24T12:08:29.902Z,18578.97
2023-05-24T12:12:42.386Z,18536.00
2023-05-24T12:16:49.398Z,18521.66
2023-05-24T12:20:51.038Z,18488.94
2023-05-24T12:24:52.793Z,18407.09
2023-05-24T12:28:55.582Z,18407.09
2023-05-24T12:32:58.852Z,18462.34
2023-05-24T12:37:00.382Z,18472.56
2023-05-24T12:41:11.251Z,18452.09
2023-05-24T12:45:13.426Z,18480.75
2023-05-24T12:49:16.686Z,18556.47
2023-05-24T12:53:18.239Z,18632.16
2023-05-24T12:57:19.834Z,19000.47
2023-05-24T13:01:21.320Z,19121.22
2023-05-24T13:05:26.152Z,19125.31
2023-05-24T13:09:27.621Z,19139.63
2023-05-24T13:13:29.082Z,19203.06
2023-05-24T13:17:30.968Z,19241.94
2023-05-24T13:21:34.042Z,19186.69
2023-05-24T13:25:35.620Z,19174.41
2023-05-24T13:29:45.600Z,19027.06
2023-05-24T13:33:54.600Z,18898.16
2023-05-24T13:37:57.376Z,18877.69
2023-05-24T13:41:58.913Z,18853.16
2023-05-24T13:46:00.614Z,18754.94
2023-05-24T13:50:02.121Z,18824.50
2023-05-24T13:54:05.706Z,18857.25
2023-05-24T13:58:07.190Z,18883.84
2023-05-24T14:02:08.762Z,19008.66
2023-05-24T14:06:10.365Z,18953.41
2023-05-24T14:10:13.519Z,18920.66
2023-05-24T14:18:19.613Z,18765.16
2023-05-24T14:22:21.069Z,18812.22
2023-05-24T14:26:24.345Z,18836.78
2023-05-24T14:30:26.653Z,18789.72
2023-05-24T14:34:28.096Z,18730.38
2023-05-24T14:38:29.598Z,18685.34
2023-05-24T14:42:32.384Z,18642.38
2023-05-24T14:46:34.057Z,18593.28
2023-05-24T14:50:35.557Z,18638.28
2023-05-24T14:54:37.016Z,18623.97
2023-05-24T14:58:39.840Z,18621.94
2023-05-24T15:02:41.521Z,18589.19
2023-05-24T15:06:43.144Z,18619.88
2023-05-24T15:10:45.383Z,18615.78
2023-05-24T15:14:48.386Z,18640.34
2023-05-24T15:18:49.946Z,18652.63
2023-05-24T15:22:51.384Z,18714.00
2023-05-24T15:26:53.935Z,18767.19
2023-05-24T15:30:57.087Z,18767.19
2023-05-24T15:34:58.601Z,18644.44
2023-05-24T15:39:02.977Z,18646.47
2023-05-24T15:43:04.495Z,18646.47
2023-05-24T15:47:07.470Z,18593.28
2023-05-24T15:55:13.293Z,18513.50
2023-05-24T15:59:14.918Z,18488.94
2023-05-24T16:03:17.807Z,18583.06
2023-05-24T16:07:19.592Z,18517.59
2023-05-24T16:11:22.025Z,18486.88
2023-05-24T16:15:23.581Z,18448.00
2023-05-24T16:19:26.593Z,18456.19
2023-05-24T16:23:28.170Z,18476.66
2023-05-24T16:27:29.610Z,18415.28
2023-05-24T16:31:31.062Z,18443.94
2023-05-24T16:35:33.947Z,18425.50
2023-05-24T16:39:35.441Z,18439.84
2023-05-24T16:43:36.936Z,18441.88
2023-05-24T16:47:38.458Z,18409.16
2023-05-24T16:51:41.283Z,18382.53
2023-05-24T16:55:42.740Z,18360.03
2023-05-24T16:59:44.190Z,18374.38
2023-05-24T17:03:45.740Z,18339.59
2023-05-24T17:07:48.749Z,18374.38
2023-05-24T17:11:50.993Z,18339.59
2023-05-24T17:15:52.896Z,18366.19
2023-05-24T17:19:54.413Z,18349.81
2023-05-24T17:23:57.252Z,18343.66
2023-05-24T17:27:58.891Z,18312.97
2023-05-24T17:32:00.423Z,18341.63
2023-05-24T17:36:01.927Z,18300.72
2023-05-24T17:40:05.777Z,18298.66
2023-05-24T17:44:07.316Z,18321.16
2023-05-24T17:48:08.805Z,18288.44
2023-05-24T17:52:10.340Z,18308.88
2023-05-24T17:56:13.317Z,18310.94
2023-05-24T18:00:15.314Z,18292.53
2023-05-24T18:04:17.286Z,18263.88
2023-05-24T18:08:18.788Z,18247.50
2023-05-24T18:12:21.641Z,18253.66
2023-05-24T18:16:23.180Z,18233.19
2023-05-24T18:20:24.700Z,18218.88
2023-05-24T18:24:26.167Z,18180.00
2023-05-24T18:28:29.048Z,18169.78
2023-05-24T18:32:30.733Z,18190.22
2023-05-24T18:36:32.582Z,18182.03
2023-05-24T18:40:34.049Z,18169.78
2023-05-24T18:44:36.800Z,18169.78
2023-05-24T18:48:38.305Z,18210.69
2023-05-24T18:52:39.852Z,18137.03
2023-05-24T18:56:41.970Z,18173.88
2023-05-24T19:00:44.801Z,18173.88
2023-05-24T19:04:46.280Z,18177.97
2023-05-24T19:08:47.850Z,18204.56
2023-05-24T19:12:49.615Z,18155.44
2023-05-24T19:16:52.439Z,18106.34
2023-05-24T19:20:53.883Z,18130.91
2023-05-24T19:24:55.302Z,18149.31
2023-05-24T19:28:56.710Z,18139.09
2023-05-24T19:32:59.539Z,18149.31
2023-05-24T19:37:01.341Z,18149.31
2023-05-24T19:41:02.961Z,18120.66
2023-05-24T19:45:05.404Z,18079.75
2023-05-24T19:49:08.352Z,18112.50
2023-05-24T19:53:09.791Z,65880.28
2023-05-24T19:57:11.245Z,65880.28
2023-05-24T20:01:12.729Z,65880.28
2023-05-24T20:05:15.883Z,65880.28
2023-05-24T20:09:17.582Z,65880.28
2023-05-24T20:13:19.243Z,65880.28
2023-05-24T20:17:20.650Z,65880.28
2023-05-24T20:21:23.414Z,65880.28
2023-05-24T20:25:24.976Z,65880.28
2023-05-24T20:29:26.923Z,65880.28
2023-05-24T20:33:28.443Z,65880.28
2023-05-24T20:37:31.446Z,65880.28
2023-05-24T20:41:32.892Z,65880.28
2023-05-24T20:45:34.365Z,65880.28
2023-05-24T20:49:36.187Z,65880.28
2023-05-24T20:53:39.208Z,65880.28
2023-05-24T20:57:40.671Z,65880.28
2023-05-24T21:01:42.351Z,65880.28
2023-05-24T21:05:44.221Z,65880.28
2023-05-24T21:09:47.255Z,65880.28
2023-05-24T21:13:48.733Z,65880.28
2023-05-24T21:17:50.190Z,65880.28
2023-05-24T21:21:51.636Z,65880.28
2023-05-24T21:25:54.438Z,65880.28
2023-05-24T21:29:55.914Z,65880.28
2023-05-24T21:33:57.528Z,65880.28
2023-05-24T21:37:59.148Z,65880.28
2023-05-24T21:42:01.938Z,65880.28
2023-05-24T21:46:03.666Z,65880.28
2023-05-24T21:50:06.118Z,65880.28
2023-05-24T21:54:07.590Z,65880.28
2023-05-24T21:58:10.631Z,65880.28
2023-05-24T22:02:12.097Z,65880.28
2023-05-24T22:06:13.693Z,65880.28
2023-05-24T22:10:15.274Z,65880.28
2023-05-24T22:14:18.128Z,65880.28
2023-05-24T22:18:19.553Z,65880.28
2023-05-24T22:22:20.956Z,65880.28
2023-05-24T22:26:22.436Z,65880.28
2023-05-24T22:30:25.238Z,65880.28
2023-05-24T22:34:27.673Z,65880.28
2023-05-24T22:38:29.082Z,65880.28
2023-05-24T22:42:30.795Z,65880.28
2023-05-24T22:46:33.659Z,65880.28
2023-05-24T22:50:35.114Z,65880.28
2023-05-24T22:54:36.559Z,65880.28
2023-05-24T22:58:37.985Z,65880.28
2023-05-24T23:02:40.799Z,65880.28
2023-05-24T23:06:42.233Z,65880.28
2023-05-24T23:10:43.778Z,65880.28
2023-05-24T23:14:45.223Z,65880.28
2023-05-24T23:18:47.970Z,65880.28
2023-05-24T23:22:49.392Z,65880.28
2023-05-24T23:26:50.828Z,65880.28
2023-05-24T23:30:52.542Z,65880.28
2023-05-24T23:34:55.347Z,65880.28
2023-05-24T23:38:56.897Z,65880.28
2023-05-24T23:42:58.538Z,65880.28
2023-05-24T23:47:01.783Z,65880.28
2023-05-24T23:51:05.217Z,65880.28
2023-05-24T23:55:07.691Z,65880.28
2023-05-24T23:59:09.134Z,65880.28
